Linzy — SIRU — position and weather

sailwx.info

Track history (hours):
 
Tides and Currents Weather Stations Pressure Air Temp Water Temp Dewpoint Dewpoint Depression Visibility Wind Speed Wind Dir Waves Ship Positions

Linzy

Last reported at 2016-Dec-09 06:24 UTC. Time now 2016-Dec-09 07:44 UTC.
Position N 55°33' E 014°22'.

Length 15 m.

Type: Fishing. MMSI: 265507290.

Date/timePositionNaut miles runAvg speedWind from/ knotsBaromVisibWave heightAir tempDewpointWater temp
2016-Dec-09 06:24N 55°33' E 014°22'0 0.0
2016-Dec-09 04:24N 55°33' E 014°22'0 0.0
2016-Dec-09 03:18N 55°33' E 014°22'0 0.0
2016-Dec-09 01:30N 55°33' E 014°22'0 0.0
2016-Dec-08 23:18N 55°33' E 014°22'0 0.0
2016-Dec-08 11:24N 55°33' E 014°22'0 0.0
2016-Dec-08 03:18N 55°33' E 014°22'0 0.0
2016-Dec-08 02:18N 55°33' E 014°22'0 0.0
2016-Dec-07 23:30N 55°33' E 014°22'0 0.0
2016-Dec-07 22:12N 55°33' E 014°22'0 0.0
2016-Dec-07 21:30N 55°33' E 014°22'0 0.0
2016-Dec-07 20:06N 55°33' E 014°22'0 0.0
2016-Dec-06 17:24N 55°33' E 014°22'1 1.0
2016-Dec-06 16:24N 55°34' E 014°23'7 8.4
2016-Dec-06 15:33N 55°36' E 014°35'6 5.7
2016-Dec-06 14:27N 55°38' E 014°46'14 1.6
2016-Dec-06 05:30N 55°34' E 014°21'0 0.0
2016-Dec-06 01:32N 55°33' E 014°22'0 0.0
2016-Dec-05 20:32N 55°33' E 014°22'0 0.0
2016-Dec-05 19:26N 55°33' E 014°22'0 0.0
2016-Dec-05 17:26N 55°33' E 014°22'0 0.0
2016-Dec-04 15:08N 55°33' E 014°22'1 1.4
2016-Dec-04 14:32N 55°34' E 014°23'7 7.3
2016-Dec-04 13:33N 55°36' E 014°35'2 0.4
2016-Dec-04 07:18N 55°38' E 014°34'8 0.8
2016-Dec-03 20:22N 55°33' E 014°22'0 0.0
2016-Dec-03 09:10N 55°33' E 014°22'0 0.0
2016-Dec-02 23:16N 55°33' E 014°22'0 0.0
2016-Dec-02 07:16N 55°33' E 014°22'0 0.0
2016-Dec-02 01:16N 55°33' E 014°22'0 0.0
2016-Dec-02 00:16N 55°33' E 014°22'0 0.0
2016-Dec-01 20:05N 55°33' E 014°22'0 0.0
2016-Dec-01 19:29N 55°33' E 014°22'2 0.7
2016-Dec-01 16:31N 55°34' E 014°25'8 7.7
2016-Dec-01 15:31N 55°37' E 014°38'3 2.8
2016-Dec-01 14:18N 55°38' E 014°43'2 3.1
2016-Dec-01 13:30N 55°38' E 014°48'8 1.2
2016-Dec-01 07:18N 55°38' E 014°34'8 1.4
2016-Dec-01 01:32N 55°33' E 014°22'0 0.0
2016-Nov-30 20:32N 55°33' E 014°22'0 0.0
2016-Nov-30 19:32N 55°33' E 014°22'0 0.0
2016-Nov-30 18:32N 55°33' E 014°22'0 0.0
2016-Nov-30 16:26N 55°33' E 014°22'0 0.0
2016-Nov-30 15:32N 55°33' E 014°22'0 0.0
2016-Nov-30 14:32N 55°33' E 014°22'0 0.0
2016-Nov-30 13:08N 55°33' E 014°22'  
Track history (hours):
 
Tides and Currents Weather Stations Pressure Air Temp Water Temp Dewpoint Dewpoint Depression Visibility Wind Speed Wind Dir Waves Ship Positions

Linzy

Last reported at 2016-Dec-09 06:24 UTC. Time now 2016-Dec-09 07:44 UTC.
Position N 55°33' E 014°22'.

Length 15 m.

Type: Fishing. MMSI: 265507290.

Date/timePositionNaut miles runAvg speedWind from/ knotsBaromVisibWave heightAir tempDewpointWater temp
2016-Dec-09 06:24N 55°33' E 014°22'0 0.0
2016-Dec-09 04:24N 55°33' E 014°22'0 0.0
2016-Dec-09 03:18N 55°33' E 014°22'0 0.0
2016-Dec-09 01:30N 55°33' E 014°22'0 0.0
2016-Dec-08 23:18N 55°33' E 014°22'0 0.0
2016-Dec-08 11:24N 55°33' E 014°22'0 0.0
2016-Dec-08 03:18N 55°33' E 014°22'0 0.0
2016-Dec-08 02:18N 55°33' E 014°22'0 0.0
2016-Dec-07 23:30N 55°33' E 014°22'0 0.0
2016-Dec-07 22:12N 55°33' E 014°22'0 0.0
2016-Dec-07 21:30N 55°33' E 014°22'0 0.0
2016-Dec-07 20:06N 55°33' E 014°22'0 0.0
2016-Dec-06 17:24N 55°33' E 014°22'1 1.0
2016-Dec-06 16:24N 55°34' E 014°23'7 8.4
2016-Dec-06 15:33N 55°36' E 014°35'6 5.7
2016-Dec-06 14:27N 55°38' E 014°46'14 1.6
2016-Dec-06 05:30N 55°34' E 014°21'0 0.0
2016-Dec-06 01:32N 55°33' E 014°22'0 0.0
2016-Dec-05 20:32N 55°33' E 014°22'0 0.0
2016-Dec-05 19:26N 55°33' E 014°22'0 0.0
2016-Dec-05 17:26N 55°33' E 014°22'0 0.0
2016-Dec-04 15:08N 55°33' E 014°22'1 1.4
2016-Dec-04 14:32N 55°34' E 014°23'7 7.3
2016-Dec-04 13:33N 55°36' E 014°35'2 0.4
2016-Dec-04 07:18N 55°38' E 014°34'8 0.8
2016-Dec-03 20:22N 55°33' E 014°22'0 0.0
2016-Dec-03 09:10N 55°33' E 014°22'0 0.0
2016-Dec-02 23:16N 55°33' E 014°22'0 0.0
2016-Dec-02 07:16N 55°33' E 014°22'0 0.0
2016-Dec-02 01:16N 55°33' E 014°22'0 0.0
2016-Dec-02 00:16N 55°33' E 014°22'0 0.0
2016-Dec-01 20:05N 55°33' E 014°22'0 0.0
2016-Dec-01 19:29N 55°33' E 014°22'2 0.7
2016-Dec-01 16:31N 55°34' E 014°25'8 7.7
2016-Dec-01 15:31N 55°37' E 014°38'3 2.8
2016-Dec-01 14:18N 55°38' E 014°43'2 3.1
2016-Dec-01 13:30N 55°38' E 014°48'8 1.2
2016-Dec-01 07:18N 55°38' E 014°34'8 1.4
2016-Dec-01 01:32N 55°33' E 014°22'0 0.0
2016-Nov-30 20:32N 55°33' E 014°22'0 0.0
2016-Nov-30 19:32N 55°33' E 014°22'0 0.0
2016-Nov-30 18:32N 55°33' E 014°22'0 0.0
2016-Nov-30 16:26N 55°33' E 014°22'0 0.0
2016-Nov-30 15:32N 55°33' E 014°22'0 0.0
2016-Nov-30 14:32N 55°33' E 014°22'0 0.0
2016-Nov-30 13:08N 55°33' E 014°22'  

Dump ship's entire track history